首页
METAR-TAF:

METAR-TAF

机场 :

班斯卡-比斯特里察, 斯洛伐克

纬度: 48-38-17N, 经度: 019-08-03E, 海拔: 318米

当前天气观测

该预报发布于31分钟前的08:30 UTC
风速2节,风向多变
温度 30°C
湿度 62%
气压 1018 hPa
能见度10公里或以上
少量云层高于3900英尺

METAR: LZSL 270830Z VRB02KT 9999 FEW039 30/22 Q1018

时间: 11:01 (09:01 UTC)

预报

该预报发布于1小时和1分钟前的08:00 UTC
预报有效从27日的 09点(UTC)到 27日的 18点(UTC)
风速2节,风向多变
能见度10公里或以上
1500米以下无云,无积雨云
短暂存在
从 27日的 09点(UTC)到 27日的 16点(UTC)
风速6节,风向西南
能见度10公里或以上
散云层高于4000英尺
散云层高于10000英尺
几率 40% :
短暂存在
从 27日的 10点(UTC)到 27日的 16点(UTC)
风速15节,风向西转西北,有时为25节阵风
能見度: 4000
散云层高于3500英尺, 积雨云.
多云层高于6000英尺
雷暴, 雨
成为
从 27日的 13点(UTC)到 27日的 15点(UTC)
风速12节,风向

TAF: LZSL 270800Z 2709/2718 VRB02KT CAVOK TEMPO 2709/2716 23006KT 9999 SCT040 SCT100 PROB40 TEMPO 2710/2716 30015G25KT 4000 TSRA SCT035CB BKN060 BECMG 2713/2715 36012KT

超过4000个机场的气象观测和天气预报(METAR&TAF报告)。

可查询的气象台以黄色和红色小点在地图上表示。

将鼠标移到小点上方,可查看气象台名称。

然后点击查看天气观测和预报。

如需切换地图:点击带黑十字的绿色按钮放大地图;点击带横线的绿色按钮缩小地图;或者点击绿色箭头查看邻近地区的地图。


METAR-TAF: